createdAt,value
2018-04-19T00:05:05.812Z,101436.80
2018-04-19T00:08:07.288Z,101431.06
2018-04-19T00:11:08.787Z,101431.01
2018-04-19T00:14:10.971Z,101431.67
2018-04-19T00:17:12.482Z,101436.61
2018-04-19T00:20:14.006Z,101428.28
2018-04-19T00:23:15.548Z,101411.44
2018-04-19T00:26:17.064Z,101423.69
2018-04-19T00:29:19.367Z,101424.94
2018-04-19T00:32:21.661Z,101415.43
2018-04-19T00:35:23.168Z,101419.23
2018-04-19T00:38:24.856Z,101419.99
2018-04-19T00:41:26.396Z,101413.30
2018-04-19T00:44:27.978Z,101409.36
2018-04-19T00:47:29.487Z,101416.15
2018-04-19T00:50:31.032Z,101413.16
2018-04-19T00:53:32.512Z,101407.31
2018-04-19T00:56:35.796Z,101402.66
2018-04-19T00:59:37.296Z,101401.22
2018-04-19T01:02:38.833Z,101390.78
2018-04-19T01:05:40.374Z,101395.84
2018-04-19T01:08:41.904Z,101392.03
2018-04-19T01:14:51.998Z,101383.45
2018-04-19T01:17:54.204Z,101382.97
2018-04-19T01:20:55.742Z,101379.24
2018-04-19T01:23:58.077Z,101379.97
2018-04-19T01:27:00.313Z,101369.36
2018-04-19T01:30:01.797Z,101378.80
2018-04-19T01:33:03.310Z,101373.43
2018-04-19T01:36:24.142Z,101371.61
2018-04-19T01:39:25.818Z,101372.83
2018-04-19T01:42:27.489Z,101373.84
2018-04-19T01:45:29.046Z,101366.94
2018-04-19T01:48:31.341Z,101381.64
2018-04-19T01:51:32.860Z,101379.56
2018-04-19T01:54:34.380Z,101368.11
2018-04-19T01:57:36.728Z,101367.29
2018-04-19T02:00:38.955Z,101373.92
2018-04-19T02:03:41.079Z,101373.48
2018-04-19T02:06:42.707Z,101368.51
2018-04-19T02:09:44.247Z,101366.30
2018-04-19T02:12:45.747Z,101347.73
2018-04-19T02:15:47.344Z,101367.34
2018-04-19T02:18:50.166Z,101368.22
2018-04-19T02:21:52.260Z,101360.45
2018-04-19T02:24:53.965Z,101357.20
2018-04-19T02:27:56.191Z,101355.71
2018-04-19T02:30:57.747Z,101350.90
2018-04-19T02:33:59.319Z,101357.55
2018-04-19T02:37:00.805Z,101344.84
2018-04-19T02:43:10.714Z,101344.91
2018-04-19T02:46:12.229Z,101340.88
2018-04-19T02:49:14.492Z,101339.19
2018-04-19T02:52:16.815Z,101332.75
2018-04-19T02:55:18.382Z,101325.89
2018-04-19T02:58:20.769Z,101329.72
2018-04-19T03:01:22.368Z,101320.58
2018-04-19T03:04:23.910Z,101323.39
2018-04-19T03:07:25.418Z,101317.58
2018-04-19T03:10:26.946Z,101318.30
2018-04-19T03:13:28.515Z,101311.91
2018-04-19T03:16:30.065Z,101288.41
2018-04-19T03:19:31.583Z,101303.72
2018-04-19T03:22:33.185Z,101299.39
2018-04-19T03:25:34.767Z,101304.14
2018-04-19T03:28:37.116Z,101294.98
2018-04-19T03:31:38.655Z,101292.33
2018-04-19T03:34:40.923Z,101293.73
2018-04-19T03:37:43.196Z,101291.78
2018-04-19T03:40:44.746Z,101302.53
2018-04-19T03:43:47.018Z,101319.65
2018-04-19T03:46:48.539Z,101288.23
2018-04-19T03:49:50.836Z,101276.15
2018-04-19T03:52:53.068Z,101279.56
2018-04-19T03:55:54.573Z,101289.09
2018-04-19T03:58:56.050Z,101283.88
2018-04-19T04:01:57.631Z,101267.87
2018-04-19T04:04:59.977Z,101281.06
2018-04-19T04:08:01.537Z,101280.17
2018-04-19T04:11:03.087Z,101275.88
2018-04-19T04:14:04.628Z,101275.88
2018-04-19T04:17:25.376Z,101284.27
2018-04-19T04:20:45.392Z,101271.77
2018-04-19T04:23:50.934Z,101283.16
2018-04-19T04:26:53.572Z,101273.20
2018-04-19T04:29:55.137Z,101276.25
2018-04-19T04:32:56.967Z,101265.26
2018-04-19T04:35:59.263Z,101274.44
2018-04-19T04:39:01.559Z,101274.63
2018-04-19T04:42:05.849Z,101271.66
2018-04-19T04:45:08.136Z,101276.42
2018-04-19T04:48:09.657Z,101274.20
2018-04-19T04:51:11.171Z,101269.59
2018-04-19T04:54:12.690Z,101267.96
2018-04-19T04:57:14.175Z,101271.66
2018-04-19T05:00:15.654Z,101270.13
2018-04-19T05:03:17.201Z,101276.48
2018-04-19T05:06:18.849Z,101267.41
2018-04-19T05:09:20.399Z,101270.53
2018-04-19T05:12:22.374Z,101278.71
2018-04-19T05:15:30.540Z,101277.41
2018-04-19T05:18:32.102Z,101294.42
2018-04-19T05:21:34.493Z,101287.80
2018-04-19T05:24:36.804Z,101285.97
2018-04-19T05:27:38.385Z,101292.11
2018-04-19T05:30:39.894Z,101292.51
2018-04-19T05:33:41.391Z,101290.10
2018-04-19T05:36:42.990Z,101287.53
2018-04-19T05:39:44.524Z,101291.52
2018-04-19T05:42:46.803Z,101296.30
2018-04-19T05:45:49.136Z,101294.01
2018-04-19T05:48:50.769Z,101296.22
2018-04-19T05:51:53.083Z,101307.29
2018-04-19T05:54:54.621Z,101306.77
2018-04-19T05:57:56.939Z,101303.27
2018-04-19T06:00:58.503Z,101305.38
2018-04-19T06:04:01.276Z,101314.13
2018-04-19T06:07:03.912Z,101305.36
2018-04-19T06:10:07.040Z,101319.55
2018-04-19T06:13:10.707Z,101315.80
2018-04-19T06:16:13.401Z,101317.38
2018-04-19T06:19:15.033Z,101319.06
2018-04-19T06:22:16.680Z,101314.29
2018-04-19T06:25:19.088Z,101315.02
2018-04-19T06:28:21.645Z,101322.31
2018-04-19T06:31:27.078Z,101316.27
2018-04-19T06:34:28.547Z,101324.14
2018-04-19T06:37:30.124Z,101323.56
2018-04-19T06:40:31.613Z,101320.61
2018-04-19T06:43:33.307Z,101328.32
2018-04-19T06:46:34.857Z,101324.03
2018-04-19T06:49:36.491Z,101322.34
2018-04-19T06:52:38.809Z,101325.84
2018-04-19T06:55:41.130Z,101323.41
2018-04-19T06:58:42.753Z,101330.77
2018-04-19T07:02:15.523Z,101349.81
2018-04-19T07:08:27.240Z,101324.13
2018-04-19T07:11:29.007Z,101325.23
2018-04-19T07:14:30.588Z,101319.34
2018-04-19T07:17:34.426Z,101321.20
2018-04-19T07:20:35.933Z,101319.41
2018-04-19T07:23:39.542Z,101305.59
2018-04-19T07:40:52.792Z,101311.95
2018-04-19T07:43:55.000Z,101286.01
2018-04-19T07:46:56.923Z,101312.62
2018-04-19T07:50:04.786Z,101310.56
2018-04-19T07:53:09.700Z,101311.20
2018-04-19T07:56:13.334Z,101313.55
2018-04-19T07:59:16.177Z,101308.91
2018-04-19T08:02:20.029Z,101314.00
2018-04-19T08:05:23.456Z,101312.72
2018-04-19T08:08:28.027Z,101319.84
2018-04-19T08:11:32.371Z,101312.64
2018-04-19T08:14:36.007Z,101309.58
2018-04-19T08:17:41.507Z,101316.30
2018-04-19T08:20:50.317Z,101315.33
2018-04-19T08:23:55.887Z,101292.31
2018-04-19T08:38:45.098Z,101310.09
2018-04-19T08:41:54.907Z,101291.78
2018-04-19T08:45:06.059Z,101300.44
2018-04-19T08:48:57.173Z,101301.27
2018-04-19T08:52:05.891Z,101297.67
2018-04-19T08:55:20.766Z,101296.81
2018-04-19T08:58:30.467Z,101287.98
2018-04-19T09:05:00.580Z,101290.19
2018-04-19T09:08:19.549Z,101286.56
2018-04-19T09:11:36.612Z,101286.28
2018-04-19T13:53:06.902Z,101078.53
2018-04-19T13:56:08.492Z,101080.39
2018-04-19T13:59:09.974Z,101080.78
2018-04-19T14:02:11.627Z,101074.73
2018-04-19T14:05:13.803Z,101076.77
2018-04-19T14:08:15.361Z,101071.70
2018-04-19T14:11:16.833Z,101061.75
2018-04-19T14:14:18.376Z,101055.97
2018-04-19T14:17:19.889Z,101064.80
2018-04-19T14:20:21.367Z,101056.86
2018-04-19T14:23:23.641Z,101051.13
2018-04-19T14:26:25.169Z,101047.42
2018-04-19T14:29:27.406Z,101044.05
2018-04-19T14:32:56.790Z,101045.43
2018-04-19T14:40:10.186Z,101041.02
2018-04-19T14:44:07.864Z,101040.18
2018-04-19T14:47:35.835Z,101032.06
2018-04-19T14:51:04.751Z,101024.80
2018-04-19T14:54:26.725Z,101031.00
2018-04-19T14:57:47.040Z,101029.86
2018-04-19T16:01:13.604Z,100995.58
2018-04-19T16:04:15.047Z,101001.70
2018-04-19T16:07:16.493Z,101000.27
2018-04-19T16:10:18.782Z,100992.20
2018-04-19T16:13:20.999Z,100994.69
2018-04-19T16:16:22.463Z,100995.80
2018-04-19T16:19:23.899Z,100994.88
2018-04-19T16:22:26.151Z,100979.78
2018-04-19T16:25:27.685Z,100976.53
2018-04-19T16:28:29.189Z,100969.17
2018-04-19T16:31:30.693Z,100984.75
2018-04-19T16:34:32.878Z,100968.98
2018-04-19T16:37:35.088Z,100968.02
2018-04-19T16:40:36.563Z,100969.90
2018-04-19T16:43:37.998Z,100969.97
2018-04-19T16:46:40.232Z,100965.48
2018-04-19T16:49:41.667Z,100974.22
2018-04-19T16:52:43.111Z,100972.91
2018-04-19T16:55:44.586Z,100965.45
2018-04-19T16:58:46.046Z,100961.78
2018-04-19T17:01:48.249Z,100953.08
2018-04-19T17:04:50.484Z,100955.37
2018-04-19T17:07:51.986Z,100949.30
2018-04-19T17:10:54.196Z,100945.20
2018-04-19T17:13:55.734Z,100952.09
2018-04-19T17:16:57.255Z,100947.83
2018-04-19T17:19:58.800Z,100946.22
2018-04-19T17:23:00.294Z,100945.55
2018-04-19T17:26:01.779Z,100933.53
2018-04-19T17:29:03.283Z,100941.76
2018-04-19T17:32:04.805Z,100936.89
2018-04-19T17:35:06.298Z,100931.56
2018-04-19T17:38:07.786Z,100926.11
2018-04-19T17:41:10.511Z,100933.56
2018-04-19T17:44:12.040Z,100929.59
2018-04-19T17:47:13.522Z,100935.16
2018-04-19T17:50:14.989Z,100928.64
2018-04-19T17:53:17.223Z,100929.66
2018-04-19T17:56:18.741Z,100924.91
2018-04-19T17:59:20.304Z,100931.15
2018-04-19T18:02:21.767Z,100919.00
2018-04-19T18:05:23.229Z,100925.03
2018-04-19T18:08:24.671Z,100928.25
2018-04-19T18:11:26.129Z,100920.36
2018-04-19T18:14:27.570Z,100926.08
2018-04-19T18:17:29.738Z,100930.71
2018-04-19T18:20:31.185Z,100942.61
2018-04-19T18:23:32.818Z,100924.36
2018-04-19T18:26:34.406Z,100946.66
2018-04-19T18:29:35.915Z,100947.87
2018-04-19T18:32:37.341Z,100947.53
2018-04-19T18:35:38.743Z,100942.73
2018-04-19T18:38:40.237Z,100946.73
2018-04-19T18:41:42.378Z,100949.84
2018-04-19T18:44:43.858Z,100953.70
2018-04-19T18:47:45.323Z,100946.52
2018-04-19T18:50:46.918Z,100953.36
2018-04-19T18:53:54.470Z,100932.94
2018-04-19T18:56:56.874Z,100953.23
2018-04-19T19:00:01.571Z,100959.69
2018-04-19T19:03:04.268Z,100966.36
2018-04-19T19:06:06.440Z,100967.82
2018-04-19T19:09:07.893Z,100968.81
2018-04-19T19:12:10.077Z,100971.41
2018-04-19T19:19:37.219Z,100967.20
2018-04-19T19:22:39.736Z,100978.82
2018-04-19T19:25:41.475Z,100976.45
2018-04-19T19:28:43.170Z,100971.61
2018-04-19T19:31:45.293Z,100980.87
2018-04-19T19:34:47.471Z,100986.67
2018-04-19T19:37:49.060Z,100993.35
2018-04-19T19:40:51.128Z,100989.74
2018-04-19T19:43:53.388Z,101003.13
2018-04-19T19:46:55.554Z,100995.14
2018-04-19T19:49:57.167Z,101002.59
2018-04-19T19:52:59.211Z,100997.18
2018-04-19T19:56:01.833Z,101006.15
2018-04-19T19:59:03.419Z,101003.28
2018-04-19T20:02:05.488Z,101002.13
2018-04-19T20:05:07.457Z,100995.66
2018-04-19T20:08:10.151Z,100994.57
2018-04-19T20:11:12.957Z,100992.10
2018-04-19T20:14:14.698Z,100991.16
2018-04-19T20:17:16.664Z,100983.20
2018-04-19T20:20:18.571Z,100996.38
2018-04-19T20:23:20.196Z,100996.42
2018-04-19T20:26:23.143Z,101002.06
2018-04-19T20:29:26.521Z,101002.06
2018-04-19T20:32:28.188Z,100997.93
2018-04-19T20:35:29.663Z,101003.64
2018-04-19T20:38:31.202Z,100999.68
2018-04-19T20:45:06.167Z,100996.73
2018-04-19T20:48:10.453Z,100984.89
2018-04-19T20:51:12.740Z,100987.04
2018-04-19T20:54:14.379Z,100985.69
2018-04-19T20:57:15.870Z,100984.34
2018-04-19T21:00:17.414Z,100990.50
2018-04-19T21:03:19.651Z,100982.31
2018-04-19T21:06:21.221Z,100985.44
2018-04-19T21:09:22.771Z,100980.56
2018-04-19T21:12:24.380Z,100984.99
2018-04-19T21:15:25.860Z,100982.59
2018-04-19T21:18:27.441Z,100980.84
2018-04-19T21:21:30.077Z,100977.38
2018-04-19T21:24:31.639Z,100988.47
2018-04-19T21:27:33.313Z,100977.95
2018-04-19T21:30:34.849Z,100982.15
2018-04-19T21:33:37.132Z,100988.28
2018-04-19T21:36:38.732Z,100978.98
2018-04-19T21:39:40.299Z,100954.58
2018-04-19T21:42:42.150Z,100984.62
2018-04-19T21:45:44.975Z,100982.45
2018-04-19T21:48:46.511Z,100984.19
2018-04-19T21:51:48.909Z,100967.91
2018-04-19T21:54:51.137Z,100985.00
2018-04-19T21:57:52.752Z,100985.29
2018-04-19T22:00:55.118Z,100973.97
2018-04-19T22:03:56.647Z,100981.98
2018-04-19T22:06:58.208Z,100983.81
2018-04-19T22:10:00.431Z,100977.19
2018-04-19T22:13:01.900Z,100982.43
2018-04-19T22:16:03.337Z,100978.80
2018-04-19T22:19:05.791Z,100971.70
2018-04-19T22:22:07.315Z,100970.89
2018-04-19T22:25:08.820Z,100973.52
2018-04-19T22:28:10.318Z,100976.71
2018-04-19T22:31:12.487Z,100953.20
2018-04-19T22:34:14.004Z,100975.06
2018-04-19T22:37:16.616Z,100972.41
2018-04-19T22:40:20.980Z,100986.90
2018-04-19T22:43:26.760Z,100983.70
2018-04-19T22:46:28.317Z,100975.91
2018-04-19T22:49:30.165Z,100974.28
2018-04-19T22:52:31.871Z,100972.73
2018-04-19T22:55:34.443Z,100968.67
2018-04-19T22:58:36.054Z,100955.05
2018-04-19T23:01:39.504Z,100970.87
2018-04-19T23:04:43.483Z,100963.08
2018-04-19T23:07:46.246Z,100967.48
2018-04-19T23:10:50.207Z,100965.45
2018-04-19T23:13:53.595Z,100961.05
2018-04-19T23:16:57.173Z,100962.23
2018-04-19T23:20:00.041Z,100954.64
2018-04-19T23:23:02.269Z,100964.55
2018-04-19T23:26:04.943Z,100948.06
2018-04-19T23:29:07.993Z,100953.67
2018-04-19T23:32:09.627Z,100961.70
2018-04-19T23:35:11.979Z,100950.41
2018-04-19T23:38:13.516Z,100950.49
2018-04-19T23:41:15.592Z,100953.09
2018-04-19T23:44:17.318Z,100947.73
2018-04-19T23:47:19.731Z,100947.09
2018-04-19T23:50:22.004Z,100939.17
2018-04-19T23:53:23.526Z,100941.30
2018-04-19T23:56:25.014Z,100930.90
2018-04-19T23:59:26.535Z,100939.20
